Aeroporto :
LOGIN :

Iscrizione | Disclaimer

   EN    FR    IT 

 










Sommario :    VFR   VFR Marginale   IFR   IFR Intensivo   IFR Molto Intensivo
Visibilità : 
Base nubi : 
>= 8 km
>= 3000ft
5 / 8 km
1000 / 3000 ft
1500m / 5 km
500 / 1000 ft
800 / 1500m
200 / 500 ft
< 800m
< 200 ft
Simboli :   Temporali  Nebbia  Neve Forte  Precipitazioni Forti  Vento > 20 kt
SIGMETs :   Varie  Temporali  Ghiacco  Turbolenza  Onda orograficha  Ceneri Vulcaniche






- Altitudine del aeroporto : 141 ft
- Codice IATA : SKS


EKSP - Srydstrup Vojens

ULTIMO METAR :
  • 070320Z 25006KT 9999 FEW027 SCT048 09/07 Q1015

METARs OBSOLETI :
  • 070250Z 25005KT CAVOK 09/07 Q1015 RMK SCT050
  • 070220Z 26007KT 9999 FEW030 SCT042 10/08 Q1015
  • 070150Z 27008KT 9999 BKN042 11/08 Q1015
  • 070050Z 27010KT 9999 BKN048 11/07 Q1014

TAF TAF EKSP
Valido dal 07 a 03 ore il 08 a 03 ore UTC


070221Z 0703/0803 28012KT 9999 -SHRA FEW020TCU SCT040
BECMG 0706/0708 25012KT
TEMPO 0708/0715 27015G25KT 4000 SHRA SCT012 BKN020CB



MetMap, La meteo Aeronautica in un colpo d'occhio ! - Copyright ORBIFLY Dicembre 2007 - Disclaimer

ORBIFLY MET'MAP TEAM :

Programmazione e sviluppo : Alexandra Zaïnal
Concezione : Baudouin d'Aumeries
Aiuto per la programmazione : Marc-Olivier Méhu
Supporto tecnico e logistico : Manuel Goepfert
Aiuto per la traduzione : Arnaldo La Scala

Contatto : metmap@orbifly.com




FONTI E CREDITI :

   NOAA